Time;durP1;ratioP1;P1;durP2;ratioP2;P2;SDS_P1;SDS_P2;PMS_P1;PMS_P2;Temp;Humidity;BMP_temperature;BMP_pressure;BME280_temperature;BME280_humidity;BME280_pressure;Samples;Min_cycle;Max_cycle;Signal;HPM_P1;HPM_P2
2023/01/09 00:01:01;;;;;;;4.80;2.53;;;;;;;8.73;86.10;98178.72;1087825;54;20038;-80
2023/01/09 00:02:04;;;;;;;4.55;2.58;;;;;;;8.71;86.17;98180.75;1087836;54;20027;-80
2023/01/09 00:03:08;;;;;;;4.35;2.50;;;;;;;8.61;86.79;98189.00;1089292;39;20811;-79
2023/01/09 00:04:13;;;;;;;5.43;3.17;;;;;;;8.65;86.99;98187.59;1091284;47;20083;-80
2023/01/09 00:05:17;;;;;;;6.07;3.50;;;;;;;8.80;86.30;98186.84;1087795;54;20557;-80
2023/01/09 00:06:21;;;;;;;5.43;3.30;;;;;;;8.71;86.67;98191.41;1087733;54;20111;-80
2023/01/09 00:07:25;;;;;;;4.70;2.60;;;;;;;8.84;85.98;98180.97;1087638;54;21024;-79
2023/01/09 00:08:29;;;;;;;5.13;3.42;;;;;;;8.79;86.12;98183.34;1087675;54;20658;-79
2023/01/09 00:09:34;;;;;;;5.28;3.25;;;;;;;8.81;86.23;98181.34;1087848;54;20026;-79
2023/01/09 00:10:38;;;;;;;5.43;3.08;;;;;;;8.88;85.62;98176.94;1087741;54;20580;-79
2023/01/09 00:11:46;;;;;;;5.43;3.35;;;;;;;8.90;85.37;98171.44;1087646;54;20041;-80
2023/01/09 00:12:56;;;;;;;5.53;3.55;;;;;;;8.81;86.16;98170.66;1088044;54;20061;-80
2023/01/09 00:14:04;;;;;;;4.82;3.17;;;;;;;8.79;86.29;98180.69;1088908;46;20120;-79
2023/01/09 00:15:14;;;;;;;5.45;3.00;;;;;;;8.77;86.56;98163.22;1088075;54;20054;-79
2023/01/09 00:16:18;;;;;;;5.95;2.70;;;;;;;8.84;86.00;98154.34;1088143;54;20027;-80
2023/01/09 00:17:20;;;;;;;4.90;2.83;;;;;;;8.84;85.67;98157.00;1088017;54;20034;-80
2023/01/09 00:18:25;;;;;;;4.95;2.50;;;;;;;8.82;85.86;98160.84;1088010;54;20066;-81
2023/01/09 00:19:27;;;;;;;4.72;2.53;;;;;;;8.84;85.63;98159.66;1087943;54;20046;-80
2023/01/09 00:20:31;;;;;;;5.22;2.75;;;;;;;8.85;85.73;98161.31;1087783;54;20648;-80
2023/01/09 00:21:32;;;;;;;5.00;2.35;;;;;;;8.91;85.29;98151.78;1087908;54;20045;-80
2023/01/09 00:22:39;;;;;;;4.30;2.63;;;;;;;8.91;85.46;98143.78;1087999;54;20022;-79
2023/01/09 00:23:41;;;;;;;6.65;3.20;;;;;;;8.85;85.58;98144.50;1087894;54;20042;-80
2023/01/09 00:24:45;;;;;;;4.25;2.50;;;;;;;8.85;85.77;98142.66;1087950;54;20011;-80
2023/01/09 00:25:46;;;;;;;6.13;2.70;;;;;;;8.87;85.56;98139.81;1087994;46;20050;-79
2023/01/09 00:26:50;;;;;;;4.47;2.40;;;;;;;8.87;85.70;98131.81;1087773;54;20033;-79
2023/01/09 00:27:54;;;;;;;4.63;2.67;;;;;;;8.87;85.74;98132.66;1087714;54;20049;-80
2023/01/09 00:28:56;;;;;;;4.28;2.58;;;;;;;8.88;85.50;98128.16;1087548;54;20049;-80
2023/01/09 00:30:00;;;;;;;5.05;2.60;;;;;;;8.91;85.35;98127.81;1087607;54;20038;-79
2023/01/09 00:31:03;;;;;;;5.15;2.42;;;;;;;8.87;85.47;98116.69;1087446;54;20038;-80
2023/01/09 00:32:09;;;;;;;4.07;2.42;;;;;;;8.95;85.05;98122.94;1090692;46;20082;-80
2023/01/09 00:33:11;;;;;;;4.97;2.90;;;;;;;8.85;85.62;98124.03;1087441;54;20037;-81
2023/01/09 00:34:15;;;;;;;4.65;3.00;;;;;;;8.87;85.58;98115.84;1087959;54;20038;-79
2023/01/09 00:35:18;;;;;;;5.32;3.20;;;;;;;8.81;85.61;98117.38;1091429;46;20041;-81
2023/01/09 00:36:22;;;;;;;4.82;3.00;;;;;;;8.83;85.52;98115.38;1087303;54;20034;-80
2023/01/09 00:37:23;;;;;;;5.55;3.10;;;;;;;8.81;85.64;98111.25;1087637;54;20081;-81
2023/01/09 00:38:30;;;;;;;5.70;2.83;;;;;;;8.84;85.39;98116.19;1087631;54;20042;-79
2023/01/09 00:39:31;;;;;;;5.85;3.45;;;;;;;8.87;85.29;98113.16;1087594;54;20061;-79
2023/01/09 00:40:36;;;;;;;5.88;3.03;;;;;;;8.88;85.27;98110.31;1087892;54;20054;-80
2023/01/09 00:41:40;;;;;;;5.38;3.17;;;;;;;8.87;85.44;98110.50;1091674;46;20034;-80
2023/01/09 00:42:47;;;;;;;5.82;3.60;;;;;;;8.89;85.24;98117.31;1088010;54;20054;-80
2023/01/09 00:43:52;;;;;;;5.05;2.60;;;;;;;8.90;85.27;98121.63;1087911;54;20033;-79
2023/01/09 00:44:59;;;;;;;4.47;2.70;;;;;;;8.92;84.72;98117.97;1087977;54;20027;-79
2023/01/09 00:46:04;;;;;;;4.63;3.03;;;;;;;8.88;85.16;98122.81;1087542;54;20038;-80
2023/01/09 00:47:13;;;;;;;4.95;2.80;;;;;;;8.88;85.15;98115.66;1087423;54;20042;-79
2023/01/09 00:48:23;;;;;;;5.68;3.40;;;;;;;8.78;85.53;98128.41;1087399;54;20053;-80
2023/01/09 00:49:30;;;;;;;5.90;3.22;;;;;;;8.74;85.50;98122.59;1088270;39;20453;-79
2023/01/09 00:50:33;;;;;;;5.47;3.55;;;;;;;8.64;85.91;98124.72;1087296;54;20050;-79
2023/01/09 00:51:39;;;;;;;5.13;3.53;;;;;;;8.68;85.96;98127.84;1087032;54;20042;-79
2023/01/09 00:52:42;;;;;;;4.60;3.10;;;;;;;8.77;85.40;98117.94;1087740;54;20053;-80
2023/01/09 00:53:50;;;;;;;5.10;3.10;;;;;;;8.74;85.50;98111.94;1088003;54;20030;-81
2023/01/09 00:54:51;;;;;;;6.18;4.03;;;;;;;8.79;85.16;98115.91;1087771;54;20086;-79
2023/01/09 00:55:56;;;;;;;6.47;3.40;;;;;;;8.80;84.99;98110.41;1087809;54;20090;-80
2023/01/09 00:56:58;;;;;;;4.90;3.33;;;;;;;8.84;84.93;98108.19;1087901;54;20034;-80
2023/01/09 00:58:03;;;;;;;4.78;3.03;;;;;;;8.81;85.12;98105.91;1088019;54;20030;-79
2023/01/09 00:59:06;;;;;;;5.22;3.17;;;;;;;8.91;84.22;98101.16;1087938;54;20073;-80
2023/01/09 01:00:12;;;;;;;5.20;3.25;;;;;;;8.94;84.24;98099.97;1088013;54;20018;-80
2023/01/09 01:01:14;;;;;;;5.50;3.22;;;;;;;8.89;84.27;98098.66;1087774;54;20044;-79
2023/01/09 01:02:18;;;;;;;6.35;3.75;;;;;;;8.88;84.24;98104.97;1087768;54;20069;-80
2023/01/09 01:03:20;;;;;;;5.40;3.53;;;;;;;8.92;84.10;98099.31;1087760;54;20042;-80
2023/01/09 01:08:20;;;;;;;5.95;3.65;;;;;;;8.81;84.01;98117.38;1087612;54;20031;-79
2023/01/09 01:09:24;;;;;;;4.88;3.42;;;;;;;8.71;84.17;98116.81;1087963;54;20030;-80
2023/01/09 01:10:29;;;;;;;5.05;3.45;;;;;;;8.83;83.71;98104.72;1087920;54;20035;-80
2023/01/09 01:11:31;;;;;;;4.90;3.08;;;;;;;8.89;83.43;98108.50;1088006;54;20066;-80
2023/01/09 01:12:36;;;;;;;5.22;3.28;;;;;;;8.85;83.62;98107.19;1087874;54;20082;-80
2023/01/09 01:13:39;;;;;;;5.72;3.65;;;;;;;8.83;83.34;98106.56;1087343;54;20034;-80
2023/01/09 01:14:43;;;;;;;5.60;3.10;;;;;;;8.81;83.45;98101.41;1087232;54;20766;-79
2023/01/09 01:15:45;;;;;;;4.80;3.10;;;;;;;8.79;83.27;98106.06;1087184;54;20648;-80
2023/01/09 01:16:50;;;;;;;4.68;3.13;;;;;;;8.86;83.17;98115.03;1091273;39;20585;-80
2023/01/09 01:17:52;;;;;;;5.22;3.17;;;;;;;8.89;82.80;98111.16;1087268;54;20042;-80
2023/01/09 01:18:56;;;;;;;5.05;3.25;;;;;;;8.90;82.76;98105.63;1087356;46;20050;-80
2023/01/09 01:19:58;;;;;;;5.70;3.55;;;;;;;8.83;82.71;98112.72;1087449;54;20042;-80
2023/01/09 01:21:02;;;;;;;5.32;3.50;;;;;;;8.80;83.33;98115.72;1087344;54;20035;-80
2023/01/09 01:22:04;;;;;;;4.97;3.28;;;;;;;8.79;83.05;98107.91;1087288;54;20066;-79
2023/01/09 01:23:08;;;;;;;5.38;3.10;;;;;;;8.84;82.88;98101.03;1087411;54;20030;-79
2023/01/09 01:24:09;;;;;;;6.68;4.45;;;;;;;8.85;82.86;98100.03;1087612;54;20062;-79
2023/01/09 01:25:18;;;;;;;5.65;3.22;;;;;;;8.97;82.22;98104.94;1087538;54;20054;-79
2023/01/09 01:26:20;;;;;;;5.38;3.25;;;;;;;8.95;82.11;98098.94;1087599;54;20095;-80
2023/01/09 01:27:24;;;;;;;5.30;2.90;;;;;;;8.95;82.21;98090.97;1087578;54;20059;-79
2023/01/09 01:28:25;;;;;;;4.85;2.67;;;;;;;9.01;81.57;98082.22;1087627;54;20050;-80
2023/01/09 01:29:30;;;;;;;5.20;3.10;;;;;;;8.99;81.89;98092.22;1087610;54;20589;-79
2023/01/09 01:30:31;;;;;;;4.45;2.58;;;;;;;9.00;81.74;98094.72;1087671;54;20049;-80
2023/01/09 01:31:35;;;;;;;5.63;3.28;;;;;;;9.02;81.46;98090.03;1087664;54;20031;-80
2023/01/09 01:32:37;;;;;;;5.13;3.03;;;;;;;9.00;81.60;98092.06;1090117;39;20509;-80
2023/01/09 01:33:41;;;;;;;4.82;2.70;;;;;;;9.02;81.52;98089.22;1087650;54;20046;-79
2023/01/09 01:34:43;;;;;;;4.60;2.95;;;;;;;8.98;81.83;98091.41;1087363;46;20068;-79
2023/01/09 01:35:47;;;;;;;4.90;2.50;;;;;;;8.90;81.95;98102.97;1087572;54;20062;-79
2023/01/09 01:36:48;;;;;;;4.10;2.55;;;;;;;8.93;81.75;98099.13;1087553;54;20035;-79
2023/01/09 01:37:52;;;;;;;4.72;2.92;;;;;;;8.96;81.66;98097.94;1087542;54;20038;-78
2023/01/09 01:38:54;;;;;;;4.45;2.67;;;;;;;9.02;81.51;98097.19;1087529;54;20030;-80
2023/01/09 01:39:58;;;;;;;4.47;2.85;;;;;;;8.98;81.44;98098.56;1087735;54;20660;-79
2023/01/09 01:41:02;;;;;;;5.05;2.70;;;;;;;8.90;81.55;98099.50;1087821;54;20041;-79
2023/01/09 01:42:07;;;;;;;4.60;2.97;;;;;;;8.93;81.91;98100.97;1087906;54;20030;-80
2023/01/09 01:43:24;;;;;;;4.57;2.47;;;;;;;8.99;81.11;98094.91;1087713;54;20046;-79
2023/01/09 01:44:58;;;;;;;5.35;2.90;;;;;;;8.99;81.23;98093.06;1087756;54;20062;-79
2023/01/09 01:46:02;;;;;;;4.90;2.55;;;;;;;8.93;81.29;98104.44;1087576;54;20054;-80
2023/01/09 01:47:03;;;;;;;5.10;2.80;;;;;;;8.87;81.49;98106.03;1090496;39;20249;-79
2023/01/09 01:48:11;;;;;;;4.80;2.80;;;;;;;8.82;81.81;98103.06;1087645;54;20094;-81
2023/01/09 01:49:19;;;;;;;4.40;2.55;;;;;;;8.91;81.82;98109.16;1086877;54;20058;-80
2023/01/09 01:50:31;;;;;;;4.47;2.50;;;;;;;8.95;81.36;98105.09;1087780;54;20050;-80
2023/01/09 01:51:39;;;;;;;4.00;2.50;;;;;;;9.00;81.04;98108.06;1087868;54;20651;-79
2023/01/09 01:52:42;;;;;;;4.57;2.75;;;;;;;8.92;81.71;98107.28;1087897;54;20042;-80
2023/01/09 01:53:50;;;;;;;4.78;2.67;;;;;;;8.97;81.40;98104.94;1087773;54;20038;-79
2023/01/09 01:54:52;;;;;;;4.82;2.75;;;;;;;8.89;81.50;98103.97;1087401;54;20080;-79
2023/01/09 01:56:08;;;;;;;5.70;2.72;;;;;;;8.83;81.74;98099.38;1087564;54;20046;-79
2023/01/09 01:57:09;;;;;;;5.28;2.80;;;;;;;8.93;81.69;98099.13;1087687;54;20604;-79
2023/01/09 01:58:17;;;;;;;4.90;2.60;;;;;;;8.86;82.12;98098.19;1087507;54;20059;-79
2023/01/09 01:59:23;;;;;;;5.00;2.80;;;;;;;8.84;82.35;98105.53;1087466;54;20045;-78
2023/01/09 02:00:32;;;;;;;3.70;2.20;;;;;;;8.87;81.91;98103.34;1087439;54;20030;-79
2023/01/09 02:01:37;;;;;;;4.53;2.45;;;;;;;8.82;82.31;98107.56;1087499;54;20634;-80
2023/01/09 02:02:42;;;;;;;4.22;2.55;;;;;;;8.79;82.61;98107.91;1087673;54;20087;-79
2023/01/09 02:04:08;;;;;;;4.22;2.33;;;;;;;8.80;82.44;98109.59;1087509;54;20056;-80
2023/01/09 02:05:39;;;;;;;4.60;2.60;;;;;;;8.76;82.85;98116.25;1087552;54;20027;-80
2023/01/09 02:06:55;;;;;;;4.80;2.70;;;;;;;8.63;83.41;98114.22;1087148;54;20060;-79
2023/01/09 02:08:04;;;;;;;4.63;2.60;;;;;;;8.69;83.35;98114.34;1087200;54;20026;-79
2023/01/09 02:09:12;;;;;;;5.13;2.50;;;;;;;8.81;82.95;98114.72;1087021;54;20142;-80
2023/01/09 02:10:17;;;;;;;5.25;2.78;;;;;;;8.83;82.65;98111.91;1087140;54;20858;-79
2023/01/09 02:11:24;;;;;;;4.53;2.80;;;;;;;8.67;83.80;98118.19;1088971;46;20054;-79
2023/01/09 02:12:27;;;;;;;4.25;2.70;;;;;;;8.64;83.83;98114.06;1087120;54;20374;-78
2023/01/09 02:13:37;;;;;;;4.03;2.42;;;;;;;8.76;83.11;98109.13;1086848;54;20043;-77
2023/01/09 02:14:39;;;;;;;4.35;2.50;;;;;;;8.85;82.89;98109.84;1086981;54;20076;-79
2023/01/09 02:16:00;;;;;;;4.78;2.45;;;;;;;8.83;82.76;98106.56;1086971;54;20030;-79
2023/01/09 02:17:09;;;;;;;3.90;2.33;;;;;;;8.89;82.60;98103.16;1087463;54;20053;-80
2023/01/09 02:18:37;;;;;;;5.55;2.55;;;;;;;8.95;81.67;98101.63;1087276;54;20030;-79
2023/01/09 02:20:15;;;;;;;4.25;2.50;;;;;;;8.74;82.69;98106.63;1087392;54;20062;-79
2023/01/09 02:21:31;;;;;;;4.85;2.67;;;;;;;8.66;83.59;98101.38;1087060;54;20417;-79
2023/01/09 02:22:40;;;;;;;6.28;2.10;;;;;;;8.53;83.29;98104.63;1087076;54;20034;-80
2023/01/09 02:24:18;;;;;;;4.18;2.38;;;;;;;8.60;83.47;98104.75;1086920;54;20034;-79
2023/01/09 02:25:47;;;;;;;4.10;2.05;;;;;;;8.64;83.23;98106.06;1089277;39;20480;-78
2023/01/09 02:27:14;;;;;;;4.25;2.42;;;;;;;8.56;83.53;98111.44;1087675;54;20119;-78
2023/01/09 02:28:39;;;;;;;4.50;2.53;;;;;;;8.58;83.38;98110.28;1089409;39;20421;-81
2023/01/09 02:30:12;;;;;;;4.03;2.30;;;;;;;8.65;83.68;98112.22;1087621;54;20034;-80
2023/01/09 02:31:20;;;;;;;4.05;2.40;;;;;;;8.69;83.18;98102.88;1087879;54;20036;-79
2023/01/09 02:32:39;;;;;;;4.60;2.15;;;;;;;8.74;83.11;98095.16;1087671;54;20018;-77
2023/01/09 02:33:55;;;;;;;4.07;2.28;;;;;;;8.66;83.11;98096.03;1088448;46;20046;-80
2023/01/09 02:35:09;;;;;;;4.20;2.15;;;;;;;8.80;82.46;98094.41;1087808;54;20053;-77
2023/01/09 02:36:23;;;;;;;3.50;1.90;;;;;;;8.77;82.50;98083.28;1087764;54;20745;-78
2023/01/09 02:37:36;;;;;;;4.07;1.83;;;;;;;8.88;81.96;98083.66;1087272;54;20046;-77
2023/01/09 02:38:54;;;;;;;3.90;2.13;;;;;;;8.92;81.43;98085.97;1086942;54;20035;-80
2023/01/09 02:40:03;;;;;;;3.65;1.80;;;;;;;8.96;81.60;98081.94;1087558;54;20042;-79
2023/01/09 02:41:14;;;;;;;3.70;1.77;;;;;;;8.86;81.27;98075.06;1087803;54;20039;-77
2023/01/09 02:42:20;;;;;;;3.15;1.48;;;;;;;9.00;80.80;98076.06;1087503;54;20042;-80
2023/01/09 02:43:25;;;;;;;2.90;1.40;;;;;;;8.95;80.67;98078.44;1087252;54;20045;-80
2023/01/09 02:44:28;;;;;;;3.55;1.45;;;;;;;8.82;81.63;98083.59;1087615;54;20042;-77
2023/01/09 02:45:32;;;;;;;3.50;1.35;;;;;;;8.94;81.05;98086.63;1087444;54;20095;-80
2023/01/09 02:46:36;;;;;;;3.67;1.65;;;;;;;8.81;82.00;98084.59;1087301;54;20042;-79
2023/01/09 02:47:45;;;;;;;3.22;1.52;;;;;;;8.82;81.64;98087.06;1087751;39;20503;-80
2023/01/09 02:48:50;;;;;;;3.38;1.52;;;;;;;8.81;81.30;98085.41;1087371;54;20034;-77
2023/01/09 02:49:56;;;;;;;3.20;1.60;;;;;;;8.80;81.55;98077.63;1086956;54;20067;-80
2023/01/09 02:51:10;;;;;;;2.95;1.30;;;;;;;8.84;81.38;98077.06;1087490;54;20034;-80
2023/01/09 02:52:28;;;;;;;2.97;1.25;;;;;;;8.89;81.29;98085.31;1087278;54;20093;-80
2023/01/09 02:53:52;;;;;;;2.78;1.20;;;;;;;8.66;81.35;98092.56;1087309;54;20065;-78
2023/01/09 02:55:04;;;;;;;4.07;2.22;;;;;;;8.62;81.80;98093.91;1087243;54;20073;-78
2023/01/09 02:56:21;;;;;;;3.72;1.63;;;;;;;8.61;81.93;98100.25;1087269;54;20030;-78
2023/01/09 02:57:40;;;;;;;2.83;1.10;;;;;;;8.61;82.02;98100.25;1087325;54;20073;-77
2023/01/09 02:58:57;;;;;;;2.33;1.00;;;;;;;8.73;81.58;98094.34;1087351;54;20019;-77
2023/01/09 03:00:08;;;;;;;3.05;1.35;;;;;;;8.72;81.61;98086.50;1089707;46;20030;-79
2023/01/09 03:02:36;;;;;;;3.53;1.75;;;;;;;8.64;81.91;98083.91;1087560;54;20034;-79
2023/01/09 03:03:48;;;;;;;3.33;1.42;;;;;;;8.77;81.49;98089.47;1087650;54;20741;-80
2023/01/09 03:05:02;;;;;;;3.28;1.58;;;;;;;8.60;81.77;98098.63;1088047;54;21152;-80
2023/01/09 03:06:13;;;;;;;3.45;1.60;;;;;;;8.65;81.59;98096.22;1087876;54;20026;-80
2023/01/09 03:07:21;;;;;;;3.80;1.58;;;;;;;8.63;81.35;98106.22;1087749;54;20780;-80
2023/01/09 03:08:30;;;;;;;3.10;1.40;;;;;;;8.53;81.86;98103.81;1087559;54;20090;-80
2023/01/09 03:09:35;;;;;;;2.70;1.20;;;;;;;8.53;82.18;98101.97;1087737;54;20037;-79
2023/01/09 03:10:45;;;;;;;3.50;1.30;;;;;;;8.46;82.32;98108.16;1087764;54;20030;-80
2023/01/09 03:11:51;;;;;;;2.45;1.00;;;;;;;8.50;82.00;98112.97;1087573;54;20055;-80
2023/01/09 03:12:56;;;;;;;2.78;0.90;;;;;;;8.43;82.24;98107.53;1087880;54;20045;-80
2023/01/09 03:14:03;;;;;;;2.67;1.10;;;;;;;8.42;82.55;98107.69;1089845;46;20038;-80
2023/01/09 03:15:12;;;;;;;3.00;1.40;;;;;;;8.42;82.35;98118.34;1087983;54;20098;-80
2023/01/09 03:16:19;;;;;;;3.90;1.02;;;;;;;8.51;82.38;98113.81;1087863;54;20042;-79
2023/01/09 03:17:31;;;;;;;3.85;1.17;;;;;;;8.41;82.40;98114.84;1087974;54;20644;-80
2023/01/09 03:18:36;;;;;;;2.60;1.00;;;;;;;8.44;82.60;98119.00;1087865;54;20045;-79
2023/01/09 03:19:41;;;;;;;2.40;1.00;;;;;;;8.49;82.35;98124.66;1087939;54;20039;-80
2023/01/09 03:20:43;;;;;;;2.80;1.05;;;;;;;8.48;82.04;98120.34;1087923;54;20046;-79
2023/01/09 03:21:49;;;;;;;2.55;0.98;;;;;;;8.47;82.25;98123.13;1087873;54;20768;-80
2023/01/09 03:22:55;;;;;;;1.58;0.80;;;;;;;8.47;82.34;98136.44;1087982;54;20034;-80
2023/01/09 03:24:02;;;;;;;2.25;0.93;;;;;;;8.57;81.99;98127.25;1087914;54;20022;-80
2023/01/09 03:25:04;;;;;;;2.45;0.88;;;;;;;8.53;81.85;98131.28;1087907;54;20641;-80
2023/01/09 03:26:12;;;;;;;3.00;1.55;;;;;;;8.42;82.64;98129.00;1087935;54;20030;-80
2023/01/09 03:27:14;;;;;;;4.40;1.20;;;;;;;8.43;82.57;98130.66;1087948;54;20725;-79
2023/01/09 03:28:27;;;;;;;3.72;1.70;;;;;;;8.42;82.74;98140.50;1090846;46;20038;-81
2023/01/09 03:29:28;;;;;;;2.35;1.00;;;;;;;8.48;82.53;98138.13;1087967;54;20061;-80
2023/01/09 03:30:35;;;;;;;2.55;1.08;;;;;;;8.61;81.85;98134.88;1087967;54;20042;-81
2023/01/09 03:31:37;;;;;;;2.47;1.17;;;;;;;8.56;81.82;98133.59;1087954;54;20031;-80
2023/01/09 03:32:43;;;;;;;2.65;1.00;;;;;;;8.50;82.24;98147.59;1090307;47;20128;-82
2023/01/09 03:33:45;;;;;;;2.53;0.90;;;;;;;8.60;81.98;98147.38;1087949;54;20031;-80
2023/01/09 03:34:49;;;;;;;2.40;1.10;;;;;;;8.56;81.82;98154.91;1088053;54;20058;-80
2023/01/09 03:35:50;;;;;;;2.55;1.10;;;;;;;8.45;82.47;98160.59;1087919;54;20035;-80
2023/01/09 03:36:55;;;;;;;2.25;0.90;;;;;;;8.45;82.28;98171.25;1088035;54;20046;-80
2023/01/09 03:37:58;;;;;;;2.40;1.08;;;;;;;8.38;82.79;98159.66;1089963;39;20701;-81
2023/01/09 03:39:02;;;;;;;4.18;0.90;;;;;;;8.42;82.30;98167.13;1088047;54;20034;-80
2023/01/09 03:40:05;;;;;;;2.47;1.02;;;;;;;8.31;83.15;98180.00;1088013;54;20027;-80
2023/01/09 03:41:09;;;;;;;2.35;0.90;;;;;;;8.31;83.28;98186.16;1094338;39;20721;-80
2023/01/09 03:42:10;;;;;;;1.92;0.73;;;;;;;8.25;82.80;98186.88;1089976;39;20657;-80
2023/01/09 03:43:15;;;;;;;3.55;1.00;;;;;;;8.33;83.09;98201.94;1087953;54;20031;-79
2023/01/09 03:44:16;;;;;;;2.95;0.93;;;;;;;8.22;83.52;98204.00;1087894;54;20721;-80
2023/01/09 03:45:20;;;;;;;1.70;0.70;;;;;;;8.27;83.40;98196.31;1088047;39;20536;-80
2023/01/09 03:46:24;;;;;;;2.00;0.70;;;;;;;8.16;84.67;98207.34;1087851;54;20046;-80
2023/01/09 03:47:36;;;;;;;3.25;1.08;;;;;;;8.19;84.78;98217.66;1087821;54;20635;-80
2023/01/09 03:48:43;;;;;;;2.00;0.70;;;;;;;8.05;85.68;98208.59;1087936;54;20038;-81
2023/01/09 03:49:44;;;;;;;2.38;0.70;;;;;;;8.09;85.92;98214.38;1088536;46;20038;-80
2023/01/09 03:51:09;;;;;;;1.85;0.70;;;;;;;8.10;86.18;98232.03;1088245;54;20041;-81
2023/01/09 03:52:12;;;;;;;1.50;0.52;;;;;;;8.05;85.92;98232.53;1088356;54;20642;-82
2023/01/09 03:53:19;;;;;;;1.20;0.60;;;;;;;8.03;85.46;98247.03;1088384;54;20034;-81
2023/01/09 03:54:20;;;;;;;3.08;0.60;;;;;;;8.06;85.32;98238.69;1088490;54;20054;-83
2023/01/09 03:55:33;;;;;;;2.13;0.63;;;;;;;8.16;84.56;98236.63;1088854;46;20027;-81
2023/01/09 03:56:34;;;;;;;1.17;0.40;;;;;;;8.10;84.13;98251.47;1088572;54;20031;-82
2023/01/09 03:58:04;;;;;;;1.20;0.50;;;;;;;8.01;83.54;98257.81;1088740;46;20034;-82
2023/01/09 03:59:05;;;;;;;1.05;0.40;;;;;;;8.02;83.25;98261.34;1091338;46;20035;-83
2023/01/09 04:00:12;;;;;;;1.02;0.40;;;;;;;7.94;82.58;98260.34;1088533;54;20027;-82
2023/01/09 04:01:13;;;;;;;0.73;0.40;;;;;;;7.89;82.77;98257.38;1088369;54;20054;-84
2023/01/09 04:02:52;;;;;;;1.02;0.40;;;;;;;7.87;83.44;98266.53;1088557;54;20015;-82
2023/01/09 04:03:56;;;;;;;0.98;0.35;;;;;;;7.85;83.34;98266.69;1088490;54;20014;-83
2023/01/09 04:05:27;;;;;;;1.77;0.50;;;;;;;7.80;83.59;98271.69;1088521;54;20065;-83
2023/01/09 04:06:31;;;;;;;2.35;0.50;;;;;;;7.84;83.52;98273.00;1088518;54;20066;-81
2023/01/09 04:07:33;;;;;;;1.13;0.40;;;;;;;7.78;83.17;98276.34;1088167;54;20110;-81
2023/01/09 04:08:37;;;;;;;1.48;0.50;;;;;;;7.71;82.88;98275.38;1088171;54;20354;-80
2023/01/09 04:09:39;;;;;;;2.25;0.40;;;;;;;7.79;82.58;98272.69;1088247;54;20038;-79
2023/01/09 04:10:46;;;;;;;2.58;0.60;;;;;;;7.67;82.59;98268.72;1088277;54;20104;-80
2023/01/09 04:11:48;;;;;;;0.60;0.30;;;;;;;7.68;82.48;98275.72;1088279;54;20076;-80
2023/01/09 04:13:04;;;;;;;1.38;0.52;;;;;;;7.63;82.13;98277.06;1090231;46;20819;-80
2023/01/09 04:14:17;;;;;;;1.88;0.47;;;;;;;7.56;81.90;98286.69;1087957;54;20039;-80
2023/01/09 04:15:24;;;;;;;0.52;0.30;;;;;;;7.54;82.22;98295.84;1088010;54;20757;-81
2023/01/09 04:16:25;;;;;;;1.17;0.30;;;;;;;7.64;82.03;98291.19;1088114;54;20031;-79
2023/01/09 04:17:29;;;;;;;3.53;0.40;;;;;;;7.63;81.63;98295.69;1088046;54;20041;-80
2023/01/09 04:18:33;;;;;;;1.88;0.40;;;;;;;7.57;81.41;98292.84;1088051;54;20045;-80
2023/01/09 04:19:40;;;;;;;1.45;0.32;;;;;;;7.53;81.54;98295.03;1088087;54;20058;-81
2023/01/09 04:20:42;;;;;;;0.80;0.30;;;;;;;7.58;81.57;98295.34;1092243;46;20027;-81
2023/01/09 04:21:46;;;;;;;1.35;0.40;;;;;;;7.52;81.46;98300.50;1087992;54;20100;-80
2023/01/09 04:22:50;;;;;;;0.75;0.30;;;;;;;7.47;81.05;98304.50;1091972;46;20018;-81
2023/01/09 04:23:51;;;;;;;0.80;0.40;;;;;;;7.43;81.33;98305.00;1087904;54;20026;-80
2023/01/09 04:24:55;;;;;;;2.13;0.40;;;;;;;7.48;81.55;98313.31;1088328;46;20018;-80
2023/01/09 04:25:57;;;;;;;0.88;0.40;;;;;;;7.49;81.49;98304.31;1088197;54;20026;-83
2023/01/09 04:29:15;;;;;;;0.68;0.38;;;;;;;7.34;81.58;98328.94;1088259;54;20122;-83
2023/01/09 04:30:17;;;;;;;0.93;0.40;;;;;;;7.39;81.69;98332.91;1090072;46;20030;-83
2023/01/09 04:31:22;;;;;;;0.95;0.35;;;;;;;7.37;82.53;98334.94;1088468;54;20034;-83
2023/01/09 04:32:26;;;;;;;0.60;0.38;;;;;;;7.47;81.90;98338.22;1089179;46;20034;-83
2023/01/09 04:34:36;;;;;;;1.15;0.40;;;;;;;7.39;82.75;98347.06;1088325;54;20014;-82
2023/01/09 04:35:41;;;;;;;2.30;0.70;;;;;;;7.36;82.93;98344.72;1090444;46;20035;-83
2023/01/09 04:37:00;;;;;;;1.45;0.50;;;;;;;7.33;82.84;98348.53;1093216;46;20033;-81
2023/01/09 04:38:01;;;;;;;1.05;0.38;;;;;;;7.40;82.77;98363.81;1088376;54;20034;-80
2023/01/09 04:39:17;;;;;;;2.85;0.47;;;;;;;7.39;82.17;98368.31;1088486;54;20030;-82
2023/01/09 04:40:19;;;;;;;2.17;0.40;;;;;;;7.34;82.65;98367.97;1088566;54;20042;-82
2023/01/09 04:41:53;;;;;;;1.05;0.40;;;;;;;7.41;82.44;98371.66;1088514;47;20031;-81
2023/01/09 04:42:54;;;;;;;1.40;0.45;;;;;;;7.36;82.79;98378.47;1088615;46;20030;-82
2023/01/09 04:43:59;;;;;;;1.25;0.50;;;;;;;7.34;82.77;98381.25;1089833;46;20037;-81
2023/01/09 04:45:00;;;;;;;1.70;0.60;;;;;;;7.24;82.83;98370.78;1089432;46;20093;-81
2023/01/09 04:46:30;;;;;;;2.20;0.50;;;;;;;7.31;82.17;98385.09;1091361;46;20042;-82
2023/01/09 04:47:32;;;;;;;1.00;0.40;;;;;;;7.29;81.98;98391.56;1088627;54;20045;-82
2023/01/09 04:48:59;;;;;;;1.13;0.40;;;;;;;7.39;81.47;98378.09;1088540;54;20025;-81
2023/01/09 04:50:00;;;;;;;2.63;0.60;;;;;;;7.42;81.34;98388.41;1092253;46;20038;-80
2023/01/09 04:51:07;;;;;;;0.98;0.40;;;;;;;7.34;80.92;98392.75;1088270;54;20027;-82
2023/01/09 04:52:09;;;;;;;1.60;0.50;;;;;;;7.37;80.74;98391.56;1091711;46;20050;-80
2023/01/09 04:53:13;;;;;;;1.98;0.50;;;;;;;7.49;80.67;98389.41;1088065;54;20041;-80
2023/01/09 04:54:14;;;;;;;1.77;0.55;;;;;;;7.42;80.22;98394.56;1092779;39;20931;-80
2023/01/09 04:55:18;;;;;;;0.80;0.32;;;;;;;7.45;80.19;98396.91;1088321;54;20030;-80
2023/01/09 04:56:20;;;;;;;2.25;0.60;;;;;;;7.45;79.57;98396.91;1088493;46;20045;-80
2023/01/09 04:57:25;;;;;;;0.85;0.40;;;;;;;7.31;79.46;98401.03;1089466;46;20026;-81
2023/01/09 04:58:27;;;;;;;2.80;0.50;;;;;;;7.25;79.78;98403.50;1088214;54;20046;-79
2023/01/09 04:59:32;;;;;;;0.82;0.40;;;;;;;7.52;79.17;98401.53;1088439;54;20022;-80
2023/01/09 05:00:33;;;;;;;1.15;0.40;;;;;;;7.61;79.07;98397.88;1091497;46;20039;-80
2023/01/09 05:01:38;;;;;;;1.85;0.73;;;;;;;7.41;78.37;98406.22;1088022;54;20042;-80
2023/01/09 05:02:40;;;;;;;1.42;0.40;;;;;;;7.30;77.90;98406.53;1090348;46;20038;-82
2023/01/09 05:03:44;;;;;;;2.40;0.50;;;;;;;7.42;77.94;98412.34;1089048;46;20034;-80
2023/01/09 05:04:48;;;;;;;1.63;0.55;;;;;;;7.51;77.60;98414.03;1089822;39;20378;-81
2023/01/09 05:05:50;;;;;;;0.30;0.30;;;;;;;7.56;77.62;98408.19;1088207;54;20050;-81
2023/01/09 05:06:57;;;;;;;0.88;0.40;;;;;;;7.45;77.56;98420.81;1088242;46;20030;-82
2023/01/09 05:07:58;;;;;;;2.22;0.50;;;;;;;7.31;77.04;98422.31;1089202;46;20073;-81
2023/01/09 05:09:02;;;;;;;1.20;0.38;;;;;;;7.36;77.50;98415.69;1088251;54;20030;-80
2023/01/09 05:10:05;;;;;;;1.50;0.50;;;;;;;7.26;77.31;98415.81;1088243;54;20022;-81
2023/01/09 05:11:09;;;;;;;1.52;0.50;;;;;;;7.29;77.69;98416.31;1088426;46;20014;-80
2023/01/09 05:12:11;;;;;;;1.13;0.50;;;;;;;7.26;77.38;98424.63;1088238;54;20118;-81
2023/01/09 05:13:15;;;;;;;1.55;0.75;;;;;;;7.27;77.08;98428.97;1089600;46;20074;-80
2023/01/09 05:14:16;;;;;;;1.73;0.50;;;;;;;7.24;76.85;98428.41;1089467;46;20022;-81
2023/01/09 05:15:22;;;;;;;1.58;0.40;;;;;;;7.22;76.78;98431.25;1088192;54;20015;-81
2023/01/09 05:16:24;;;;;;;1.00;0.35;;;;;;;7.30;76.81;98428.59;1088202;54;20086;-79
2023/01/09 05:17:28;;;;;;;2.75;0.60;;;;;;;7.27;76.98;98434.28;1088238;47;20031;-80
2023/01/09 05:18:30;;;;;;;1.58;0.50;;;;;;;7.23;76.78;98432.91;1088398;54;20039;-83
2023/01/09 05:19:35;;;;;;;1.92;0.40;;;;;;;7.31;76.73;98424.97;1092253;46;20053;-82
2023/01/09 05:28:00;;;;;;;2.00;0.70;;;;;;;7.37;76.21;98434.09;1087724;54;20023;-79
2023/01/09 05:29:03;;;;;;;;;;;;;;;7.21;76.00;98434.91;1087805;54;20030;-78
2023/01/09 05:30:09;;;;;;;2.97;0.68;;;;;;;7.21;76.16;98437.56;1089383;46;19938;-78
2023/01/09 05:31:10;;;;;;;1.65;0.55;;;;;;;7.18;76.38;98445.84;1088345;46;20030;-77
2023/01/09 05:32:14;;;;;;;1.70;0.50;;;;;;;7.34;76.28;98451.22;1088081;54;20286;-77
2023/01/09 05:33:18;;;;;;;1.25;0.47;;;;;;;7.46;75.70;98448.25;1088061;54;20037;-77
2023/01/09 05:34:21;;;;;;;3.30;0.63;;;;;;;7.38;75.92;98448.22;1089406;46;20030;-78
2023/01/09 05:35:25;;;;;;;3.72;0.80;;;;;;;7.33;75.55;98448.72;1087994;54;20038;-77